sensor_id;sensor_type;location;lat;lon;timestamp;P1;durP1;ratioP1;P2;durP2;ratioP2
49582;SDS011;36329;48.816;44.624;2022-09-06T00:01:41;8.2;;;2.9;;
49582;SDS011;36329;48.816;44.624;2022-09-06T00:04:43;7.1;;;2.8;;
49582;SDS011;36329;48.816;44.624;2022-09-06T00:07:44;7.8;;;2.9;;
49582;SDS011;36329;48.816;44.624;2022-09-06T00:10:46;8.8;;;3.1;;
49582;SDS011;36329;48.816;44.624;2022-09-06T00:13:47;9.4;;;3.8;;
49582;SDS011;36329;48.816;44.624;2022-09-06T00:16:49;6.9;;;2.9;;
49582;SDS011;36329;48.816;44.624;2022-09-06T00:19:51;8.4;;;3.7;;
49582;SDS011;36329;48.816;44.624;2022-09-06T00:22:55;7.7;;;3.8;;
49582;SDS011;36329;48.816;44.624;2022-09-06T00:26:01;8.7;;;3.9;;
49582;SDS011;36329;48.816;44.624;2022-09-06T00:29:03;5.7;;;3.1;;
49582;SDS011;36329;48.816;44.624;2022-09-06T00:32:04;7.2;;;3.2;;
49582;SDS011;36329;48.816;44.624;2022-09-06T00:35:06;8.6;;;3.1;;
49582;SDS011;36329;48.816;44.624;2022-09-06T00:38:07;8.6;;;3.8;;
49582;SDS011;36329;48.816;44.624;2022-09-06T00:41:11;6.3;;;2.9;;
49582;SDS011;36329;48.816;44.624;2022-09-06T00:44:15;6.5;;;3.3;;
49582;SDS011;36329;48.816;44.624;2022-09-06T00:47:16;8.2;;;4.1;;
49582;SDS011;36329;48.816;44.624;2022-09-06T00:50:18;6;;;3.4;;
49582;SDS011;36329;48.816;44.624;2022-09-06T00:53:20;6.7;;;3.4;;
49582;SDS011;36329;48.816;44.624;2022-09-06T00:56:22;6;;;3.8;;
49582;SDS011;36329;48.816;44.624;2022-09-06T00:59:24;7.8;;;2.9;;
49582;SDS011;36329;48.816;44.624;2022-09-06T01:02:29;6.2;;;3.9;;
49582;SDS011;36329;48.816;44.624;2022-09-06T01:05:32;8.5;;;3.8;;
49582;SDS011;36329;48.816;44.624;2022-09-06T01:08:46;6.7;;;3.5;;
49582;SDS011;36329;48.816;44.624;2022-09-06T01:11:57;8.6;;;3.1;;
49582;SDS011;36329;48.816;44.624;2022-09-06T01:15:08;7.1;;;3.5;;
49582;SDS011;36329;48.816;44.624;2022-09-06T01:18:25;5.2;;;3.3;;
49582;SDS011;36329;48.816;44.624;2022-09-06T01:21:35;6.7;;;3.7;;
49582;SDS011;36329;48.816;44.624;2022-09-06T01:24:49;6.5;;;4.2;;
49582;SDS011;36329;48.816;44.624;2022-09-06T01:28:07;6.7;;;3.2;;
49582;SDS011;36329;48.816;44.624;2022-09-06T01:31:20;5.8;;;3.4;;
49582;SDS011;36329;48.816;44.624;2022-09-06T01:34:27;10;;;4.6;;
49582;SDS011;36329;48.816;44.624;2022-09-06T01:37:35;6.1;;;3.6;;
49582;SDS011;36329;48.816;44.624;2022-09-06T01:40:37;7.4;;;4.3;;
49582;SDS011;36329;48.816;44.624;2022-09-06T01:43:40;5.7;;;3.6;;
49582;SDS011;36329;48.816;44.624;2022-09-06T01:46:49;7;;;4.5;;
49582;SDS011;36329;48.816;44.624;2022-09-06T01:50:01;6.7;;;3.5;;
49582;SDS011;36329;48.816;44.624;2022-09-06T01:53:16;7.1;;;3.6;;
49582;SDS011;36329;48.816;44.624;2022-09-06T01:56:25;9.1;;;3.6;;
49582;SDS011;36329;48.816;44.624;2022-09-06T01:59:39;7.6;;;3.5;;
49582;SDS011;36329;48.816;44.624;2022-09-06T02:02:52;7.1;;;4.6;;
49582;SDS011;36329;48.816;44.624;2022-09-06T02:06:02;11.3;;;4.7;;
49582;SDS011;36329;48.816;44.624;2022-09-06T02:09:06;8;;;4;;
49582;SDS011;36329;48.816;44.624;2022-09-06T02:12:12;9.9;;;4.8;;
49582;SDS011;36329;48.816;44.624;2022-09-06T02:15:15;9.2;;;4;;
49582;SDS011;36329;48.816;44.624;2022-09-06T02:18:23;7.7;;;4.8;;
49582;SDS011;36329;48.816;44.624;2022-09-06T02:21:31;9.7;;;4.5;;
49582;SDS011;36329;48.816;44.624;2022-09-06T02:24:37;7.7;;;3.5;;
49582;SDS011;36329;48.816;44.624;2022-09-06T02:27:42;8;;;4.1;;
49582;SDS011;36329;48.816;44.624;2022-09-06T02:30:46;8.2;;;4.5;;
49582;SDS011;36329;48.816;44.624;2022-09-06T02:33:51;6.3;;;3.4;;
49582;SDS011;36329;48.816;44.624;2022-09-06T02:36:54;5.7;;;3.7;;
49582;SDS011;36329;48.816;44.624;2022-09-06T02:39:55;6.8;;;3.8;;
49582;SDS011;36329;48.816;44.624;2022-09-06T02:42:57;7.9;;;3.6;;
49582;SDS011;36329;48.816;44.624;2022-09-06T02:45:59;6.9;;;3.4;;
49582;SDS011;36329;48.816;44.624;2022-09-06T02:49:00;5.6;;;3.4;;
49582;SDS011;36329;48.816;44.624;2022-09-06T02:52:02;6.2;;;3.5;;
49582;SDS011;36329;48.816;44.624;2022-09-06T02:55:04;5.7;;;4.1;;
49582;SDS011;36329;48.816;44.624;2022-09-06T02:58:08;6.1;;;3.9;;
49582;SDS011;36329;48.816;44.624;2022-09-06T03:01:11;5.1;;;3;;
49582;SDS011;36329;48.816;44.624;2022-09-06T03:04:13;7.4;;;3.6;;
49582;SDS011;36329;48.816;44.624;2022-09-06T03:07:14;5.2;;;3;;
49582;SDS011;36329;48.816;44.624;2022-09-06T03:10:16;7.5;;;3.8;;
49582;SDS011;36329;48.816;44.624;2022-09-06T03:13:17;7.1;;;3.1;;
49582;SDS011;36329;48.816;44.624;2022-09-06T03:16:19;7.8;;;2.9;;
49582;SDS011;36329;48.816;44.624;2022-09-06T03:19:21;6.2;;;3.4;;
49582;SDS011;36329;48.816;44.624;2022-09-06T03:22:23;4.8;;;2.8;;
49582;SDS011;36329;48.816;44.624;2022-09-06T03:25:24;6.4;;;2.8;;
49582;SDS011;36329;48.816;44.624;2022-09-06T03:28:26;8.2;;;3.4;;
49582;SDS011;36329;48.816;44.624;2022-09-06T03:31:28;8.4;;;2.8;;
49582;SDS011;36329;48.816;44.624;2022-09-06T03:34:30;6.7;;;2.7;;
49582;SDS011;36329;48.816;44.624;2022-09-06T03:37:32;4.9;;;2.9;;
49582;SDS011;36329;48.816;44.624;2022-09-06T03:40:33;4.9;;;2.6;;
49582;SDS011;36329;48.816;44.624;2022-09-06T03:43:35;5.4;;;2.6;;
49582;SDS011;36329;48.816;44.624;2022-09-06T03:46:37;5.6;;;3.2;;
49582;SDS011;36329;48.816;44.624;2022-09-06T03:49:38;7.1;;;3.2;;
49582;SDS011;36329;48.816;44.624;2022-09-06T03:52:40;3.9;;;2.7;;
49582;SDS011;36329;48.816;44.624;2022-09-06T03:55:43;5.7;;;3;;
49582;SDS011;36329;48.816;44.624;2022-09-06T03:58:45;6.7;;;3.6;;
49582;SDS011;36329;48.816;44.624;2022-09-06T04:01:47;5.5;;;2.9;;
49582;SDS011;36329;48.816;44.624;2022-09-06T04:04:48;6;;;2.7;;
49582;SDS011;36329;48.816;44.624;2022-09-06T04:07:50;7.5;;;3.2;;
49582;SDS011;36329;48.816;44.624;2022-09-06T04:10:52;5.2;;;3.2;;
49582;SDS011;36329;48.816;44.624;2022-09-06T04:13:54;7.4;;;3.3;;
49582;SDS011;36329;48.816;44.624;2022-09-06T04:16:55;5.6;;;3.2;;
49582;SDS011;36329;48.816;44.624;2022-09-06T04:19:57;4.7;;;3;;
49582;SDS011;36329;48.816;44.624;2022-09-06T04:22:58;6;;;3.6;;
49582;SDS011;36329;48.816;44.624;2022-09-06T04:26:00;7.2;;;3.1;;
49582;SDS011;36329;48.816;44.624;2022-09-06T04:29:01;5.2;;;2.5;;
49582;SDS011;36329;48.816;44.624;2022-09-06T04:32:03;5.5;;;3.1;;
49582;SDS011;36329;48.816;44.624;2022-09-06T04:35:06;5.2;;;2.3;;
49582;SDS011;36329;48.816;44.624;2022-09-06T04:38:08;5.6;;;3;;
49582;SDS011;36329;48.816;44.624;2022-09-06T04:41:10;5.3;;;2.9;;
49582;SDS011;36329;48.816;44.624;2022-09-06T04:44:13;6.6;;;3;;
49582;SDS011;36329;48.816;44.624;2022-09-06T04:47:15;5.7;;;2.7;;
49582;SDS011;36329;48.816;44.624;2022-09-06T04:50:17;5.6;;;2.8;;
49582;SDS011;36329;48.816;44.624;2022-09-06T04:53:19;6.7;;;2.6;;
49582;SDS011;36329;48.816;44.624;2022-09-06T04:56:22;9.3;;;2.9;;
49582;SDS011;36329;48.816;44.624;2022-09-06T04:59:25;5.4;;;2.6;;
49582;SDS011;36329;48.816;44.624;2022-09-06T05:02:27;4.7;;;2.4;;
49582;SDS011;36329;48.816;44.624;2022-09-06T05:05:29;5.5;;;2.7;;
49582;SDS011;36329;48.816;44.624;2022-09-06T05:08:31;3.8;;;2.3;;
49582;SDS011;36329;48.816;44.624;2022-09-06T05:11:32;5.4;;;2.3;;
49582;SDS011;36329;48.816;44.624;2022-09-06T05:14:34;5.7;;;2.5;;
49582;SDS011;36329;48.816;44.624;2022-09-06T05:17:36;5.1;;;2.2;;
49582;SDS011;36329;48.816;44.624;2022-09-06T05:20:37;7.1;;;2.3;;
49582;SDS011;36329;48.816;44.624;2022-09-06T05:23:39;4.6;;;2.3;;
49582;SDS011;36329;48.816;44.624;2022-09-06T05:26:40;6.3;;;2.5;;
49582;SDS011;36329;48.816;44.624;2022-09-06T05:29:42;5.5;;;2.6;;
49582;SDS011;36329;48.816;44.624;2022-09-06T05:32:44;8.8;;;2.8;;
49582;SDS011;36329;48.816;44.624;2022-09-06T05:35:46;5.1;;;2.3;;
49582;SDS011;36329;48.816;44.624;2022-09-06T05:38:49;5.2;;;2.4;;
49582;SDS011;36329;48.816;44.624;2022-09-06T05:41:50;5.6;;;2.5;;
49582;SDS011;36329;48.816;44.624;2022-09-06T05:44:52;5.6;;;2.6;;
49582;SDS011;36329;48.816;44.624;2022-09-06T05:47:54;4.3;;;2.6;;
49582;SDS011;36329;48.816;44.624;2022-09-06T05:50:59;3.7;;;2.3;;
49582;SDS011;36329;48.816;44.624;2022-09-06T05:54:00;4.6;;;2.5;;
49582;SDS011;36329;48.816;44.624;2022-09-06T05:57:02;4.6;;;2.1;;
49582;SDS011;36329;48.816;44.624;2022-09-06T06:00:04;4;;;2.4;;
49582;SDS011;36329;48.816;44.624;2022-09-06T06:03:06;5.5;;;2.3;;
49582;SDS011;36329;48.816;44.624;2022-09-06T06:06:08;20.4;;;3.2;;
49582;SDS011;36329;48.816;44.624;2022-09-06T06:09:10;8;;;2.6;;
49582;SDS011;36329;48.816;44.624;2022-09-06T06:12:12;8.9;;;2.5;;
49582;SDS011;36329;48.816;44.624;2022-09-06T06:15:14;4.9;;;2.6;;
49582;SDS011;36329;48.816;44.624;2022-09-06T06:18:16;5.2;;;2.3;;
49582;SDS011;36329;48.816;44.624;2022-09-06T06:21:18;5.2;;;2.4;;
49582;SDS011;36329;48.816;44.624;2022-09-06T06:24:22;7.8;;;2.4;;
49582;SDS011;36329;48.816;44.624;2022-09-06T06:27:23;10.3;;;2.4;;
49582;SDS011;36329;48.816;44.624;2022-09-06T06:30:25;5;;;2;;
49582;SDS011;36329;48.816;44.624;2022-09-06T06:33:27;5.5;;;2.7;;
49582;SDS011;36329;48.816;44.624;2022-09-06T06:36:29;7.8;;;2.7;;
49582;SDS011;36329;48.816;44.624;2022-09-06T06:39:32;12.8;;;2.5;;
49582;SDS011;36329;48.816;44.624;2022-09-06T06:42:33;7.1;;;2.7;;
49582;SDS011;36329;48.816;44.624;2022-09-06T06:45:35;10.8;;;2.7;;
49582;SDS011;36329;48.816;44.624;2022-09-06T06:48:37;5.2;;;2.1;;
49582;SDS011;36329;48.816;44.624;2022-09-06T06:51:40;5.3;;;2.2;;
49582;SDS011;36329;48.816;44.624;2022-09-06T06:54:42;5.9;;;3;;
49582;SDS011;36329;48.816;44.624;2022-09-06T06:57:43;5;;;2.7;;
49582;SDS011;36329;48.816;44.624;2022-09-06T07:00:45;4.6;;;2.2;;
49582;SDS011;36329;48.816;44.624;2022-09-06T07:03:47;5.3;;;2.3;;
49582;SDS011;36329;48.816;44.624;2022-09-06T07:06:50;4.2;;;2.1;;
49582;SDS011;36329;48.816;44.624;2022-09-06T07:09:52;3.7;;;2.2;;
49582;SDS011;36329;48.816;44.624;2022-09-06T07:12:54;3.4;;;2;;
49582;SDS011;36329;48.816;44.624;2022-09-06T07:19:14;4.4;;;2.1;;
49582;SDS011;36329;48.816;44.624;2022-09-06T07:22:16;5.2;;;2;;
49582;SDS011;36329;48.816;44.624;2022-09-06T07:25:18;4.6;;;2.2;;
49582;SDS011;36329;48.816;44.624;2022-09-06T07:28:20;6.5;;;2.1;;
49582;SDS011;36329;48.816;44.624;2022-09-06T07:31:22;3.9;;;1.9;;
49582;SDS011;36329;48.816;44.624;2022-09-06T07:34:24;3.4;;;1.9;;
49582;SDS011;36329;48.816;44.624;2022-09-06T07:37:26;5.3;;;1.9;;
49582;SDS011;36329;48.816;44.624;2022-09-06T07:40:28;5.9;;;2.2;;
49582;SDS011;36329;48.816;44.624;2022-09-06T07:43:31;7.3;;;2.5;;
49582;SDS011;36329;48.816;44.624;2022-09-06T07:46:34;5.6;;;2.4;;
49582;SDS011;36329;48.816;44.624;2022-09-06T07:49:35;8.8;;;2.5;;
49582;SDS011;36329;48.816;44.624;2022-09-06T07:52:37;8.5;;;2.3;;
49582;SDS011;36329;48.816;44.624;2022-09-06T07:55:39;6.8;;;2.1;;
49582;SDS011;36329;48.816;44.624;2022-09-06T07:58:40;4.9;;;1.7;;
49582;SDS011;36329;48.816;44.624;2022-09-06T08:01:42;4.3;;;1.5;;
49582;SDS011;36329;48.816;44.624;2022-09-06T08:04:44;5.3;;;1.5;;
49582;SDS011;36329;48.816;44.624;2022-09-06T08:07:46;6.1;;;1.9;;
49582;SDS011;36329;48.816;44.624;2022-09-06T08:10:48;6.2;;;1.8;;
49582;SDS011;36329;48.816;44.624;2022-09-06T08:13:51;4.2;;;1.5;;
49582;SDS011;36329;48.816;44.624;2022-09-06T08:16:54;6.4;;;1.8;;
49582;SDS011;36329;48.816;44.624;2022-09-06T08:19:56;4.2;;;1.4;;
49582;SDS011;36329;48.816;44.624;2022-09-06T08:22:57;5.3;;;1.9;;
49582;SDS011;36329;48.816;44.624;2022-09-06T08:25:59;7.6;;;1.4;;
49582;SDS011;36329;48.816;44.624;2022-09-06T08:29:02;4.1;;;1.1;;
49582;SDS011;36329;48.816;44.624;2022-09-06T08:32:04;5.6;;;0.9;;
49582;SDS011;36329;48.816;44.624;2022-09-06T08:35:06;3;;;1.1;;
49582;SDS011;36329;48.816;44.624;2022-09-06T08:38:08;4.5;;;0.9;;
49582;SDS011;36329;48.816;44.624;2022-09-06T08:41:11;1.8;;;0.9;;
49582;SDS011;36329;48.816;44.624;2022-09-06T08:44:24;2.2;;;0.9;;
49582;SDS011;36329;48.816;44.624;2022-09-06T08:47:29;4.3;;;0.8;;
49582;SDS011;36329;48.816;44.624;2022-09-06T08:50:31;2.9;;;1;;
49582;SDS011;36329;48.816;44.624;2022-09-06T08:53:34;4.7;;;1;;
49582;SDS011;36329;48.816;44.624;2022-09-06T08:56:44;5.4;;;1.5;;
49582;SDS011;36329;48.816;44.624;2022-09-06T08:59:59;6.2;;;1.8;;
49582;SDS011;36329;48.816;44.624;2022-09-06T09:03:05;4.1;;;1.5;;
49582;SDS011;36329;48.816;44.624;2022-09-06T09:06:11;2.6;;;1.5;;
49582;SDS011;36329;48.816;44.624;2022-09-06T09:09:13;12.7;;;2.1;;
49582;SDS011;36329;48.816;44.624;2022-09-06T09:12:16;5.1;;;1.6;;
49582;SDS011;36329;48.816;44.624;2022-09-06T09:15:22;5.8;;;1.7;;
49582;SDS011;36329;48.816;44.624;2022-09-06T09:18:25;5.4;;;1.6;;
49582;SDS011;36329;48.816;44.624;2022-09-06T09:21:30;4.3;;;1.7;;
49582;SDS011;36329;48.816;44.624;2022-09-06T09:24:34;2.5;;;1.8;;
49582;SDS011;36329;48.816;44.624;2022-09-06T09:27:37;6.7;;;2.4;;
49582;SDS011;36329;48.816;44.624;2022-09-06T09:30:48;6.3;;;3.5;;
49582;SDS011;36329;48.816;44.624;2022-09-06T09:33:51;9.1;;;5;;
49582;SDS011;36329;48.816;44.624;2022-09-06T09:40:13;8.2;;;5;;
49582;SDS011;36329;48.816;44.624;2022-09-06T09:43:16;6.9;;;4.1;;
49582;SDS011;36329;48.816;44.624;2022-09-06T09:46:27;9.2;;;4.9;;
49582;SDS011;36329;48.816;44.624;2022-09-06T09:49:31;10.1;;;5.1;;
49582;SDS011;36329;48.816;44.624;2022-09-06T09:52:33;8.2;;;4.7;;
49582;SDS011;36329;48.816;44.624;2022-09-06T09:55:44;9.9;;;5.3;;
49582;SDS011;36329;48.816;44.624;2022-09-06T09:58:46;10.3;;;4.9;;
49582;SDS011;36329;48.816;44.624;2022-09-06T10:01:48;8.4;;;4.2;;
49582;SDS011;36329;48.816;44.624;2022-09-06T10:04:57;6.2;;;3.9;;
49582;SDS011;36329;48.816;44.624;2022-09-06T10:08:01;6.7;;;3.7;;
49582;SDS011;36329;48.816;44.624;2022-09-06T10:11:03;8.7;;;4.5;;
49582;SDS011;36329;48.816;44.624;2022-09-06T10:14:17;8.6;;;4.3;;
49582;SDS011;36329;48.816;44.624;2022-09-06T10:17:28;8.1;;;4.1;;
49582;SDS011;36329;48.816;44.624;2022-09-06T10:20:32;7;;;3.4;;
49582;SDS011;36329;48.816;44.624;2022-09-06T10:23:45;7;;;3.8;;
49582;SDS011;36329;48.816;44.624;2022-09-06T10:26:56;7.7;;;3.5;;
49582;SDS011;36329;48.816;44.624;2022-09-06T10:30:03;6.1;;;3.6;;
49582;SDS011;36329;48.816;44.624;2022-09-06T10:33:07;7.5;;;3.6;;
49582;SDS011;36329;48.816;44.624;2022-09-06T10:36:26;4.3;;;3.1;;
49582;SDS011;36329;48.816;44.624;2022-09-06T10:39:37;6.9;;;3.6;;
49582;SDS011;36329;48.816;44.624;2022-09-06T10:42:49;6;;;3.6;;
49582;SDS011;36329;48.816;44.624;2022-09-06T10:45:55;7;;;3.3;;
49582;SDS011;36329;48.816;44.624;2022-09-06T10:48:58;6.6;;;3.5;;
49582;SDS011;36329;48.816;44.624;2022-09-06T10:52:00;5.7;;;3.8;;
49582;SDS011;36329;48.816;44.624;2022-09-06T10:55:05;7.4;;;3.4;;
49582;SDS011;36329;48.816;44.624;2022-09-06T10:58:13;5;;;2.5;;
49582;SDS011;36329;48.816;44.624;2022-09-06T11:01:25;4.7;;;2.7;;
49582;SDS011;36329;48.816;44.624;2022-09-06T11:04:34;3.2;;;2;;
49582;SDS011;36329;48.816;44.624;2022-09-06T11:07:39;9.1;;;2.2;;
49582;SDS011;36329;48.816;44.624;2022-09-06T11:10:41;7.4;;;2;;
49582;SDS011;36329;48.816;44.624;2022-09-06T11:13:46;7.1;;;2.1;;
49582;SDS011;36329;48.816;44.624;2022-09-06T11:16:50;7.1;;;1.9;;
49582;SDS011;36329;48.816;44.624;2022-09-06T11:20:00;4;;;1.9;;
49582;SDS011;36329;48.816;44.624;2022-09-06T11:26:35;3.3;;;1.3;;
49582;SDS011;36329;48.816;44.624;2022-09-06T11:29:44;3.9;;;1.2;;
49582;SDS011;36329;48.816;44.624;2022-09-06T11:32:48;4.3;;;1.2;;
49582;SDS011;36329;48.816;44.624;2022-09-06T11:35:51;6.9;;;1.7;;
49582;SDS011;36329;48.816;44.624;2022-09-06T11:38:54;3.7;;;1.5;;
49582;SDS011;36329;48.816;44.624;2022-09-06T11:41:57;3.5;;;1.3;;
49582;SDS011;36329;48.816;44.624;2022-09-06T11:51:36;3.7;;;1.1;;
49582;SDS011;36329;48.816;44.624;2022-09-06T11:54:40;3.5;;;1.1;;
49582;SDS011;36329;48.816;44.624;2022-09-06T11:57:47;4.6;;;1.5;;
49582;SDS011;36329;48.816;44.624;2022-09-06T12:11:28;3.2;;;1;;
49582;SDS011;36329;48.816;44.624;2022-09-06T12:14:36;2.5;;;0.9;;
49582;SDS011;36329;48.816;44.624;2022-09-06T12:17:45;4.8;;;1;;
49582;SDS011;36329;48.816;44.624;2022-09-06T12:24:05;4.7;;;1.5;;
49582;SDS011;36329;48.816;44.624;2022-09-06T12:27:09;7;;;1.3;;
49582;SDS011;36329;48.816;44.624;2022-09-06T12:30:13;3.8;;;1.6;;
49582;SDS011;36329;48.816;44.624;2022-09-06T12:33:34;6.2;;;1.8;;
49582;SDS011;36329;48.816;44.624;2022-09-06T12:36:38;4.8;;;1.7;;
49582;SDS011;36329;48.816;44.624;2022-09-06T12:39:55;6.8;;;1.5;;
49582;SDS011;36329;48.816;44.624;2022-09-06T12:42:58;5.2;;;2.6;;
49582;SDS011;36329;48.816;44.624;2022-09-06T12:46:03;4;;;2;;
49582;SDS011;36329;48.816;44.624;2022-09-06T12:49:07;3.2;;;1;;
49582;SDS011;36329;48.816;44.624;2022-09-06T12:52:11;4.8;;;2;;
49582;SDS011;36329;48.816;44.624;2022-09-06T12:55:18;3.1;;;1.2;;
49582;SDS011;36329;48.816;44.624;2022-09-06T12:58:26;5.5;;;2.4;;
49582;SDS011;36329;48.816;44.624;2022-09-06T13:01:30;4.2;;;1.7;;
49582;SDS011;36329;48.816;44.624;2022-09-06T13:04:36;5;;;1.2;;
49582;SDS011;36329;48.816;44.624;2022-09-06T13:07:44;5.3;;;1.8;;
49582;SDS011;36329;48.816;44.624;2022-09-06T13:10:50;2.9;;;1.1;;
49582;SDS011;36329;48.816;44.624;2022-09-06T13:13:52;3;;;1.3;;
49582;SDS011;36329;48.816;44.624;2022-09-06T13:16:55;4.4;;;1.4;;
49582;SDS011;36329;48.816;44.624;2022-09-06T13:19:58;3.6;;;1.9;;
49582;SDS011;36329;48.816;44.624;2022-09-06T13:23:18;3.2;;;1.2;;
49582;SDS011;36329;48.816;44.624;2022-09-06T13:29:40;3.2;;;1.3;;
49582;SDS011;36329;48.816;44.624;2022-09-06T13:32:55;5.4;;;1;;
49582;SDS011;36329;48.816;44.624;2022-09-06T13:36:05;4;;;1.1;;
49582;SDS011;36329;48.816;44.624;2022-09-06T13:39:09;3.8;;;1.3;;
49582;SDS011;36329;48.816;44.624;2022-09-06T13:42:22;3.1;;;0.9;;
49582;SDS011;36329;48.816;44.624;2022-09-06T13:45:27;4.3;;;1.2;;
49582;SDS011;36329;48.816;44.624;2022-09-06T13:48:30;5;;;1.5;;
49582;SDS011;36329;48.816;44.624;2022-09-06T13:51:41;5.6;;;1.2;;
49582;SDS011;36329;48.816;44.624;2022-09-06T13:54:43;2.6;;;1.1;;
49582;SDS011;36329;48.816;44.624;2022-09-06T13:57:45;3.6;;;1;;
49582;SDS011;36329;48.816;44.624;2022-09-06T14:00:46;2.6;;;1.7;;
49582;SDS011;36329;48.816;44.624;2022-09-06T14:03:48;4.1;;;1.3;;
49582;SDS011;36329;48.816;44.624;2022-09-06T14:06:50;3;;;1.3;;
49582;SDS011;36329;48.816;44.624;2022-09-06T14:09:52;9.1;;;1.4;;
49582;SDS011;36329;48.816;44.624;2022-09-06T14:12:54;6.3;;;1.6;;
49582;SDS011;36329;48.816;44.624;2022-09-06T14:15:56;3.9;;;1.5;;
49582;SDS011;36329;48.816;44.624;2022-09-06T14:18:57;4.5;;;1.2;;
49582;SDS011;36329;48.816;44.624;2022-09-06T14:21:59;3.2;;;0.9;;
49582;SDS011;36329;48.816;44.624;2022-09-06T14:25:00;4.7;;;0.9;;
49582;SDS011;36329;48.816;44.624;2022-09-06T14:28:02;5.4;;;1.3;;
49582;SDS011;36329;48.816;44.624;2022-09-06T14:31:08;4.7;;;1.2;;
49582;SDS011;36329;48.816;44.624;2022-09-06T14:34:11;6;;;1.1;;
49582;SDS011;36329;48.816;44.624;2022-09-06T14:37:12;5.8;;;1.5;;
49582;SDS011;36329;48.816;44.624;2022-09-06T14:40:14;3.7;;;1.5;;
49582;SDS011;36329;48.816;44.624;2022-09-06T14:43:16;4.7;;;1.5;;
49582;SDS011;36329;48.816;44.624;2022-09-06T14:46:19;5.2;;;1.4;;
49582;SDS011;36329;48.816;44.624;2022-09-06T14:49:22;7.7;;;1.6;;
49582;SDS011;36329;48.816;44.624;2022-09-06T14:52:23;4.6;;;1.8;;
49582;SDS011;36329;48.816;44.624;2022-09-06T14:55:25;5.6;;;1.5;;
49582;SDS011;36329;48.816;44.624;2022-09-06T14:58:27;5.3;;;1.4;;
49582;SDS011;36329;48.816;44.624;2022-09-06T15:01:30;9;;;1.7;;
49582;SDS011;36329;48.816;44.624;2022-09-06T15:04:33;6.3;;;1.6;;
49582;SDS011;36329;48.816;44.624;2022-09-06T15:07:35;7;;;2.2;;
49582;SDS011;36329;48.816;44.624;2022-09-06T15:10:37;8;;;2.6;;
49582;SDS011;36329;48.816;44.624;2022-09-06T15:13:38;10.3;;;2.9;;
49582;SDS011;36329;48.816;44.624;2022-09-06T15:16:40;9.1;;;3.1;;
49582;SDS011;36329;48.816;44.624;2022-09-06T15:19:42;8.7;;;3;;
49582;SDS011;36329;48.816;44.624;2022-09-06T15:22:44;5.5;;;2.6;;
49582;SDS011;36329;48.816;44.624;2022-09-06T15:25:47;9.5;;;2.9;;
49582;SDS011;36329;48.816;44.624;2022-09-06T15:28:51;10.5;;;3.2;;
49582;SDS011;36329;48.816;44.624;2022-09-06T15:31:53;12.1;;;3.5;;
49582;SDS011;36329;48.816;44.624;2022-09-06T15:34:56;9.9;;;3.5;;
49582;SDS011;36329;48.816;44.624;2022-09-06T15:37:58;12;;;3.5;;
49582;SDS011;36329;48.816;44.624;2022-09-06T15:41:03;12.8;;;3.3;;
49582;SDS011;36329;48.816;44.624;2022-09-06T15:44:07;9.7;;;2.9;;
49582;SDS011;36329;48.816;44.624;2022-09-06T15:47:10;10.1;;;2.6;;
49582;SDS011;36329;48.816;44.624;2022-09-06T15:50:11;8.5;;;2.5;;
49582;SDS011;36329;48.816;44.624;2022-09-06T15:53:13;7.8;;;2.6;;
49582;SDS011;36329;48.816;44.624;2022-09-06T15:56:15;7.4;;;2.3;;
49582;SDS011;36329;48.816;44.624;2022-09-06T15:59:18;5.1;;;2.1;;
49582;SDS011;36329;48.816;44.624;2022-09-06T16:02:20;7.4;;;2.3;;
49582;SDS011;36329;48.816;44.624;2022-09-06T16:05:21;10.2;;;2.5;;
49582;SDS011;36329;48.816;44.624;2022-09-06T16:08:23;6.3;;;2.3;;
49582;SDS011;36329;48.816;44.624;2022-09-06T16:11:25;5.8;;;2.2;;
49582;SDS011;36329;48.816;44.624;2022-09-06T16:14:27;4.8;;;2.3;;
49582;SDS011;36329;48.816;44.624;2022-09-06T16:17:29;6.4;;;3;;
49582;SDS011;36329;48.816;44.624;2022-09-06T16:20:31;6.4;;;2.3;;
49582;SDS011;36329;48.816;44.624;2022-09-06T16:23:32;5.8;;;2;;
49582;SDS011;36329;48.816;44.624;2022-09-06T16:26:35;5.9;;;1.8;;
49582;SDS011;36329;48.816;44.624;2022-09-06T16:29:40;5.3;;;1.8;;
49582;SDS011;36329;48.816;44.624;2022-09-06T16:32:41;4;;;1.8;;
49582;SDS011;36329;48.816;44.624;2022-09-06T16:35:43;6.7;;;3.7;;
49582;SDS011;36329;48.816;44.624;2022-09-06T16:38:45;7.2;;;2;;
49582;SDS011;36329;48.816;44.624;2022-09-06T16:41:47;6;;;1.8;;
49582;SDS011;36329;48.816;44.624;2022-09-06T16:44:49;4.9;;;1.6;;
49582;SDS011;36329;48.816;44.624;2022-09-06T16:47:51;2.8;;;1.2;;
49582;SDS011;36329;48.816;44.624;2022-09-06T16:50:53;3.5;;;1.3;;
49582;SDS011;36329;48.816;44.624;2022-09-06T16:53:55;4.7;;;1.7;;
49582;SDS011;36329;48.816;44.624;2022-09-06T16:57:00;2.3;;;1.4;;
49582;SDS011;36329;48.816;44.624;2022-09-06T17:00:03;5.5;;;1.6;;
49582;SDS011;36329;48.816;44.624;2022-09-06T17:03:05;4.9;;;1.5;;
49582;SDS011;36329;48.816;44.624;2022-09-06T17:06:07;5.1;;;1.8;;
49582;SDS011;36329;48.816;44.624;2022-09-06T17:09:09;5.2;;;2.4;;
49582;SDS011;36329;48.816;44.624;2022-09-06T17:12:11;3.5;;;1.8;;
49582;SDS011;36329;48.816;44.624;2022-09-06T17:15:13;4.7;;;1.7;;
49582;SDS011;36329;48.816;44.624;2022-09-06T17:18:14;6;;;1.7;;
49582;SDS011;36329;48.816;44.624;2022-09-06T17:21:16;7.4;;;2;;
49582;SDS011;36329;48.816;44.624;2022-09-06T17:24:18;7.1;;;2.3;;
49582;SDS011;36329;48.816;44.624;2022-09-06T17:27:20;8.4;;;2.8;;
49582;SDS011;36329;48.816;44.624;2022-09-06T17:30:21;8.5;;;3.2;;
49582;SDS011;36329;48.816;44.624;2022-09-06T17:33:23;10.4;;;3.2;;
49582;SDS011;36329;48.816;44.624;2022-09-06T17:36:25;14;;;3.7;;
49582;SDS011;36329;48.816;44.624;2022-09-06T17:39:28;13.4;;;4.3;;
49582;SDS011;36329;48.816;44.624;2022-09-06T17:42:32;10.6;;;4.1;;
49582;SDS011;36329;48.816;44.624;2022-09-06T17:45:36;11.4;;;4.1;;
49582;SDS011;36329;48.816;44.624;2022-09-06T17:48:38;9.2;;;3.7;;
49582;SDS011;36329;48.816;44.624;2022-09-06T17:51:40;10.2;;;3.5;;
49582;SDS011;36329;48.816;44.624;2022-09-06T17:54:42;10.6;;;3.4;;
49582;SDS011;36329;48.816;44.624;2022-09-06T17:57:44;10.8;;;3.4;;
49582;SDS011;36329;48.816;44.624;2022-09-06T18:00:45;11.8;;;3.1;;
49582;SDS011;36329;48.816;44.624;2022-09-06T18:03:47;6.5;;;1.8;;
49582;SDS011;36329;48.816;44.624;2022-09-06T18:06:50;9.5;;;2;;
49582;SDS011;36329;48.816;44.624;2022-09-06T18:09:51;7.1;;;1.9;;
49582;SDS011;36329;48.816;44.624;2022-09-06T18:12:53;3.2;;;1.5;;
49582;SDS011;36329;48.816;44.624;2022-09-06T18:15:55;2;;;1.2;;
49582;SDS011;36329;48.816;44.624;2022-09-06T18:18:57;3.6;;;1.4;;
49582;SDS011;36329;48.816;44.624;2022-09-06T18:22:00;2.9;;;1.3;;
49582;SDS011;36329;48.816;44.624;2022-09-06T18:25:02;4.5;;;1.1;;
49582;SDS011;36329;48.816;44.624;2022-09-06T18:28:05;2.2;;;1.2;;
49582;SDS011;36329;48.816;44.624;2022-09-06T18:31:07;2;;;1.2;;
49582;SDS011;36329;48.816;44.624;2022-09-06T18:34:10;2.9;;;1.2;;
49582;SDS011;36329;48.816;44.624;2022-09-06T18:37:12;5.3;;;1.4;;
49582;SDS011;36329;48.816;44.624;2022-09-06T18:40:14;3;;;1;;
49582;SDS011;36329;48.816;44.624;2022-09-06T18:43:15;2.2;;;1.1;;
49582;SDS011;36329;48.816;44.624;2022-09-06T18:46:17;4.3;;;1;;
49582;SDS011;36329;48.816;44.624;2022-09-06T18:49:19;3.8;;;1;;
49582;SDS011;36329;48.816;44.624;2022-09-06T18:52:22;1.4;;;0.8;;
49582;SDS011;36329;48.816;44.624;2022-09-06T18:55:23;1.9;;;0.9;;
49582;SDS011;36329;48.816;44.624;2022-09-06T18:58:25;2.7;;;1.3;;
49582;SDS011;36329;48.816;44.624;2022-09-06T19:01:27;2.2;;;0.9;;
49582;SDS011;36329;48.816;44.624;2022-09-06T19:04:30;2.4;;;1.1;;
49582;SDS011;36329;48.816;44.624;2022-09-06T19:07:31;4.1;;;1.3;;
49582;SDS011;36329;48.816;44.624;2022-09-06T19:10:33;4.6;;;0.9;;
49582;SDS011;36329;48.816;44.624;2022-09-06T19:13:36;2;;;0.9;;
49582;SDS011;36329;48.816;44.624;2022-09-06T19:16:39;3.1;;;1;;
49582;SDS011;36329;48.816;44.624;2022-09-06T19:19:41;2.4;;;1.1;;
49582;SDS011;36329;48.816;44.624;2022-09-06T19:22:42;1.7;;;1.1;;